Jamestown, Louisiana
Current Conditions -  °F | °C
As of 4:14 PM on Saturday 25 Oct 2014 (Local Time) from KMNE Reporting Station
Clear Clear  
Wind Chill: 84°   Ceiling: Unl
Heat Index: 84°   Visibility: 10mi
Dew Point: 61°   Wind: 6mph
Humidity: 45%   Direction: 240°WSW
Pressure: 30.08"   Gusts: NA
Location:  32.34°N, 93.21°W
Report Text: KMNE 252114Z AUTO 24005KT 10SM CLR 29/16 A3008 RMK AO2
Loading
Personal Weather Stations






























Interactive Weather Map
Tropical Storm Tracking
New forecast layout! Learn more

10-Day Weather Forecast

Advertisements
Track Severe Weather on mobile